Sinai, South Dakota
Current Conditions -  °F | °C
As of 6:15 AM on Monday 24 Nov 2014 (Local Time) from KMDS Reporting Station
Light Snow Light Snow  
Wind Chill: -3°   Ceiling: 1600
Heat Index: 16°   Visibility: 10mi
Dew Point: 14°   Wind: 26mph
Humidity: 93%   Direction: 320°NW
Pressure: 29.57"   Gusts: 33mph
Location:  44.24°N, 97.04°W
Report Text: KMDS 241215Z AUTO 32023G29KT 10SM -SN OVC016 M09/M10 A2957 RMK AO2
Loading
Personal Weather Stations






























Interactive Weather Map New forecast layout! Learn more

10-Day Weather Forecast

Advertisements
Track Severe Weather on mobile